createdAt,value
2018-03-29T00:01:56.966Z,-71
2018-03-29T00:04:23.193Z,-72
2018-03-29T00:06:49.498Z,-72
2018-03-29T00:09:15.854Z,-71
2018-03-29T00:11:46.973Z,-72
2018-03-29T00:14:13.489Z,-71
2018-03-29T00:16:39.936Z,-71
2018-03-29T00:19:06.406Z,-71
2018-03-29T00:21:32.698Z,-71
2018-03-29T00:23:58.940Z,-71
2018-03-29T00:28:58.841Z,-71
2018-03-29T00:31:25.278Z,-70
2018-03-29T00:33:51.526Z,-71
2018-03-29T00:36:18.164Z,-72
2018-03-29T00:38:44.391Z,-71
2018-03-29T00:41:10.898Z,-71
2018-03-29T00:43:41.124Z,-71
2018-03-29T00:46:07.371Z,-70
2018-03-29T00:48:33.600Z,-71
2018-03-29T00:51:00.219Z,-71
2018-03-29T00:53:26.428Z,-70
2018-03-29T00:55:53.448Z,-70
2018-03-29T00:58:19.742Z,-71
2018-03-29T01:00:45.971Z,-71
2018-03-29T01:03:12.227Z,-71
2018-03-29T01:05:38.391Z,-71
2018-03-29T01:08:04.834Z,-71
2018-03-29T01:10:31.268Z,-70
2018-03-29T01:12:57.420Z,-70
2018-03-29T01:15:23.648Z,-71
2018-03-29T01:17:49.874Z,-72
2018-03-29T01:20:16.026Z,-71
2018-03-29T01:22:42.347Z,-71
2018-03-29T01:25:08.825Z,-71
2018-03-29T01:27:35.263Z,-71
2018-03-29T01:30:01.529Z,-71
2018-03-29T01:32:27.926Z,-71
2018-03-29T01:34:54.190Z,-70
2018-03-29T01:37:20.624Z,-72
2018-03-29T01:39:47.013Z,-71
2018-03-29T01:42:13.341Z,-71
2018-03-29T01:44:39.616Z,-71
2018-03-29T01:47:06.101Z,-71
2018-03-29T01:49:32.538Z,-71
2018-03-29T01:51:59.451Z,-71
2018-03-29T01:54:25.608Z,-71
2018-03-29T01:56:51.929Z,-72
2018-03-29T01:59:18.111Z,-71
2018-03-29T02:01:44.481Z,-70
2018-03-29T02:04:10.716Z,-70
2018-03-29T02:06:37.001Z,-72
2018-03-29T02:09:03.182Z,-70
2018-03-29T02:11:29.556Z,-70
2018-03-29T02:13:56.142Z,-71
2018-03-29T02:16:22.498Z,-72
2018-03-29T02:18:48.907Z,-71
2018-03-29T02:21:15.082Z,-70
2018-03-29T02:23:41.309Z,-70
2018-03-29T02:26:07.550Z,-71
2018-03-29T02:28:33.772Z,-70
2018-03-29T02:31:00.001Z,-71
2018-03-29T02:33:26.338Z,-69
2018-03-29T02:35:52.572Z,-71
2018-03-29T02:38:18.806Z,-71
2018-03-29T02:40:45.130Z,-70
2018-03-29T02:43:12.166Z,-71
2018-03-29T02:45:38.316Z,-72
2018-03-29T02:48:04.643Z,-71
2018-03-29T02:50:30.953Z,-71
2018-03-29T02:52:57.899Z,-72
2018-03-29T02:55:24.843Z,-71
2018-03-29T02:57:51.195Z,-72
2018-03-29T03:00:17.390Z,-71
2018-03-29T03:02:43.632Z,-71
2018-03-29T03:05:10.680Z,-70
2018-03-29T03:07:37.732Z,-71
2018-03-29T03:10:04.060Z,-70
2018-03-29T03:12:30.516Z,-71
2018-03-29T03:14:56.826Z,-72
2018-03-29T03:17:23.863Z,-71
2018-03-29T03:19:50.920Z,-71
2018-03-29T03:22:17.079Z,-71
2018-03-29T03:24:43.239Z,-71
2018-03-29T03:27:09.498Z,-71
2018-03-29T03:29:35.770Z,-71
2018-03-29T03:32:02.325Z,-70
2018-03-29T03:34:28.697Z,-71
2018-03-29T03:36:54.846Z,-72
2018-03-29T03:39:21.102Z,-71
2018-03-29T03:41:48.223Z,-71
2018-03-29T03:44:15.047Z,-71
2018-03-29T03:46:41.303Z,-71
2018-03-29T03:49:07.600Z,-71
2018-03-29T03:51:33.828Z,-71
2018-03-29T03:54:00.212Z,-71
2018-03-29T03:56:26.381Z,-72
2018-03-29T03:58:52.609Z,-72
2018-03-29T04:01:18.837Z,-71
2018-03-29T04:03:47.121Z,-71
2018-03-29T04:08:45.618Z,-71
2018-03-29T04:11:11.950Z,-71
2018-03-29T04:13:38.119Z,-71
2018-03-29T04:16:04.303Z,-70
2018-03-29T04:18:30.877Z,-71
2018-03-29T04:20:57.061Z,-71
2018-03-29T04:25:55.925Z,-71
2018-03-29T04:28:23.020Z,-71
2018-03-29T04:30:49.247Z,-71
2018-03-29T04:33:15.775Z,-71
2018-03-29T04:35:42.014Z,-71
2018-03-29T04:38:08.242Z,-70
2018-03-29T04:40:34.501Z,-72
2018-03-29T04:43:00.794Z,-71
2018-03-29T04:45:26.946Z,-70
2018-03-29T04:47:53.162Z,-71
2018-03-29T04:50:20.387Z,-70
2018-03-29T04:52:46.810Z,-71
2018-03-29T04:55:13.069Z,-71
2018-03-29T04:57:39.472Z,-70
2018-03-29T05:00:05.739Z,-71
2018-03-29T05:02:31.978Z,-71
2018-03-29T05:04:58.195Z,-70
2018-03-29T05:07:24.588Z,-70
2018-03-29T05:09:51.010Z,-71
2018-03-29T05:12:17.179Z,-70
2018-03-29T05:17:15.262Z,-70
2018-03-29T05:19:42.226Z,-70
2018-03-29T05:22:08.723Z,-70
2018-03-29T05:24:35.080Z,-71
2018-03-29T05:27:01.313Z,-71
2018-03-29T05:29:27.793Z,-71
2018-03-29T05:31:55.045Z,-71
2018-03-29T05:34:21.330Z,-71
2018-03-29T05:36:47.715Z,-71
2018-03-29T05:39:13.986Z,-70
2018-03-29T05:41:40.382Z,-70
2018-03-29T05:44:06.647Z,-71
2018-03-29T05:46:32.874Z,-72
2018-03-29T05:48:59.294Z,-70
2018-03-29T05:51:25.541Z,-71
2018-03-29T05:53:51.757Z,-70
2018-03-29T05:56:18.094Z,-71
2018-03-29T05:58:47.245Z,-71
2018-03-29T06:01:13.514Z,-70
2018-03-29T06:03:39.889Z,-71
2018-03-29T06:06:06.187Z,-71
2018-03-29T06:08:32.571Z,-71
2018-03-29T06:10:58.812Z,-72
2018-03-29T06:13:25.064Z,-70
2018-03-29T06:15:51.223Z,-71
2018-03-29T06:18:17.522Z,-71
2018-03-29T06:20:43.918Z,-72
2018-03-29T06:23:10.101Z,-70
2018-03-29T06:25:37.363Z,-71
2018-03-29T06:28:03.684Z,-71
2018-03-29T06:30:30.053Z,-72
2018-03-29T06:32:56.236Z,-71
2018-03-29T06:35:23.175Z,-71
2018-03-29T06:37:53.454Z,-71
2018-03-29T06:40:19.727Z,-71
2018-03-29T06:45:18.131Z,-70
2018-03-29T06:47:44.474Z,-69
2018-03-29T06:50:10.784Z,-70
2018-03-29T06:52:37.338Z,-71
2018-03-29T06:55:03.548Z,-72
2018-03-29T06:57:30.597Z,-71
2018-03-29T06:59:59.096Z,-71
2018-03-29T07:02:25.339Z,-71
2018-03-29T07:04:51.638Z,-71
2018-03-29T07:07:17.856Z,-71
2018-03-29T07:09:44.019Z,-71
2018-03-29T07:12:10.214Z,-71
2018-03-29T07:14:36.657Z,-71
2018-03-29T07:17:03.124Z,-71
2018-03-29T07:19:29.415Z,-70
2018-03-29T07:21:55.803Z,-71
2018-03-29T07:24:22.126Z,-71
2018-03-29T07:26:48.304Z,-71
2018-03-29T07:29:14.654Z,-69
2018-03-29T07:31:40.869Z,-69
2018-03-29T07:34:07.095Z,-69
2018-03-29T07:36:33.462Z,-70
2018-03-29T07:38:59.958Z,-71
2018-03-29T07:41:26.191Z,-75
2018-03-29T07:43:52.414Z,-74
2018-03-29T07:46:18.783Z,-74
2018-03-29T07:48:45.075Z,-74
2018-03-29T07:51:11.304Z,-74
2018-03-29T07:53:37.526Z,-75
2018-03-29T07:56:03.682Z,-71
2018-03-29T07:58:29.982Z,-71
2018-03-29T08:00:56.409Z,-71
2018-03-29T08:03:22.854Z,-71
2018-03-29T08:05:49.017Z,-70
2018-03-29T08:08:15.299Z,-71
2018-03-29T08:15:45.460Z,-70
2018-03-29T08:18:11.885Z,-70
2018-03-29T08:20:38.317Z,-71
2018-03-29T08:23:04.745Z,-71
2018-03-29T08:25:31.184Z,-70
2018-03-29T08:27:57.450Z,-71
2018-03-29T08:30:23.845Z,-71
2018-03-29T08:32:50.074Z,-70
2018-03-29T08:35:16.509Z,-70
2018-03-29T08:37:42.933Z,-71
2018-03-29T08:40:09.162Z,-74
2018-03-29T08:42:35.325Z,-73
2018-03-29T08:45:01.606Z,-73
2018-03-29T08:47:29.472Z,-73
2018-03-29T08:49:55.904Z,-73
2018-03-29T08:52:22.149Z,-74
2018-03-29T08:54:48.376Z,-73
2018-03-29T08:57:14.797Z,-74
2018-03-29T08:59:41.014Z,-73
2018-03-29T09:02:07.245Z,-74
2018-03-29T09:04:33.474Z,-75
2018-03-29T09:06:59.702Z,-74
2018-03-29T09:09:25.970Z,-74
2018-03-29T09:11:52.569Z,-74
2018-03-29T09:14:18.791Z,-74
2018-03-29T09:16:45.241Z,-73
2018-03-29T09:19:11.668Z,-72
2018-03-29T09:21:38.113Z,-74
2018-03-29T09:24:04.530Z,-72
2018-03-29T09:26:30.957Z,-73
2018-03-29T09:28:57.189Z,-71
2018-03-29T09:31:23.668Z,-71
2018-03-29T09:33:50.089Z,-71
2018-03-29T09:36:16.495Z,-71
2018-03-29T09:38:42.858Z,-71
2018-03-29T09:41:09.133Z,-69
2018-03-29T09:43:35.364Z,-71
2018-03-29T09:46:01.633Z,-70
2018-03-29T09:48:27.856Z,-69
2018-03-29T09:50:54.083Z,-71
2018-03-29T09:53:20.278Z,-71
2018-03-29T09:55:46.505Z,-71
2018-03-29T09:58:12.932Z,-71
2018-03-29T10:00:39.161Z,-71
2018-03-29T10:03:05.442Z,-71
2018-03-29T10:05:31.657Z,-71
2018-03-29T10:07:58.045Z,-70
2018-03-29T10:10:24.271Z,-70
2018-03-29T10:12:50.499Z,-69
2018-03-29T10:15:16.794Z,-74
2018-03-29T10:17:42.965Z,-74
2018-03-29T10:20:09.381Z,-73
2018-03-29T10:22:35.609Z,-73
2018-03-29T10:25:01.836Z,-73
2018-03-29T10:27:28.095Z,-74
2018-03-29T10:29:54.598Z,-72
2018-03-29T10:32:20.941Z,-70
2018-03-29T10:34:47.160Z,-70
2018-03-29T10:37:17.287Z,-71
2018-03-29T10:39:43.522Z,-70
2018-03-29T10:42:09.728Z,-71
2018-03-29T10:44:35.955Z,-70
2018-03-29T10:47:02.114Z,-70
2018-03-29T10:49:29.276Z,-70
2018-03-29T10:51:55.553Z,-70
2018-03-29T10:54:21.893Z,-70
2018-03-29T10:56:48.217Z,-71
2018-03-29T10:59:14.435Z,-70
2018-03-29T11:01:40.776Z,-70
2018-03-29T11:04:07.004Z,-70
2018-03-29T11:06:33.232Z,-70
2018-03-29T11:08:59.468Z,-70
2018-03-29T11:11:25.899Z,-71
2018-03-29T11:13:52.128Z,-70
2018-03-29T11:16:19.054Z,-72
2018-03-29T11:18:45.289Z,-71
2018-03-29T11:21:11.516Z,-70
2018-03-29T11:23:37.748Z,-71
2018-03-29T11:26:04.074Z,-71
2018-03-29T11:28:30.508Z,-71
2018-03-29T11:30:56.736Z,-71
2018-03-29T11:33:22.882Z,-70
2018-03-29T11:38:20.844Z,-71
2018-03-29T11:40:47.173Z,-69
2018-03-29T11:43:17.498Z,-70
2018-03-29T11:45:43.940Z,-70
2018-03-29T11:48:10.353Z,-74
2018-03-29T11:50:36.830Z,-74
2018-03-29T11:53:03.229Z,-74
2018-03-29T11:55:29.455Z,-74
2018-03-29T12:00:28.055Z,-74
2018-03-29T12:02:54.782Z,-72
2018-03-29T12:05:21.180Z,-71
2018-03-29T12:07:47.556Z,-71
2018-03-29T12:10:13.990Z,-71
2018-03-29T12:12:40.494Z,-72
2018-03-29T12:15:06.744Z,-68
2018-03-29T12:17:32.971Z,-69
2018-03-29T12:19:59.517Z,-69
2018-03-29T12:22:25.745Z,-69
2018-03-29T12:24:51.897Z,-69
2018-03-29T12:27:18.189Z,-69
2018-03-29T12:29:44.623Z,-71
2018-03-29T12:32:11.053Z,-71
2018-03-29T12:34:37.438Z,-74
2018-03-29T12:37:03.736Z,-73
2018-03-29T12:39:30.154Z,-72
2018-03-29T12:41:56.571Z,-73
2018-03-29T12:44:22.793Z,-73
2018-03-29T12:46:49.022Z,-73
2018-03-29T12:49:16.477Z,-73
2018-03-29T12:51:42.866Z,-72
2018-03-29T12:54:09.074Z,-72
2018-03-29T12:56:36.194Z,-73
2018-03-29T12:59:02.618Z,-71
2018-03-29T13:01:29.140Z,-73
2018-03-29T13:03:55.692Z,-74
2018-03-29T13:06:21.917Z,-74
2018-03-29T13:08:48.347Z,-69
2018-03-29T13:11:15.597Z,-70
2018-03-29T13:13:42.073Z,-71
2018-03-29T13:16:08.261Z,-72
2018-03-29T13:18:34.685Z,-73
2018-03-29T13:21:00.917Z,-72
2018-03-29T13:23:27.194Z,-74
2018-03-29T13:25:53.422Z,-74
2018-03-29T13:28:23.290Z,-74
2018-03-29T13:30:49.813Z,-74
2018-03-29T13:33:16.350Z,-74
2018-03-29T13:35:42.591Z,-74
2018-03-29T13:38:08.810Z,-71
2018-03-29T13:40:34.990Z,-71
2018-03-29T13:43:01.262Z,-70
2018-03-29T13:45:27.490Z,-70
2018-03-29T13:47:53.757Z,-71
2018-03-29T13:50:20.148Z,-71
2018-03-29T13:52:46.384Z,-70
2018-03-29T13:55:12.643Z,-70
2018-03-29T13:57:39.046Z,-70
2018-03-29T14:00:05.262Z,-70
2018-03-29T14:02:31.491Z,-70
2018-03-29T14:04:57.697Z,-70
2018-03-29T14:07:24.165Z,-71
2018-03-29T14:09:50.369Z,-71
2018-03-29T14:12:16.836Z,-70
2018-03-29T14:14:43.046Z,-70
2018-03-29T14:17:10.258Z,-70
2018-03-29T14:19:37.331Z,-70
2018-03-29T14:22:03.636Z,-70
2018-03-29T14:24:30.006Z,-70
2018-03-29T14:26:56.428Z,-70
2018-03-29T14:29:22.658Z,-71
2018-03-29T14:31:48.888Z,-70
2018-03-29T14:34:15.112Z,-70
2018-03-29T14:36:41.748Z,-70
2018-03-29T14:39:08.098Z,-70
2018-03-29T14:41:34.437Z,-70
2018-03-29T14:44:01.036Z,-70
2018-03-29T14:46:27.194Z,-70
2018-03-29T14:48:53.472Z,-70
2018-03-29T14:51:20.545Z,-70
2018-03-29T14:53:46.779Z,-72
2018-03-29T14:56:13.404Z,-75
2018-03-29T14:58:39.841Z,-73
2018-03-29T15:01:06.317Z,-72
2018-03-29T15:03:33.510Z,-73
2018-03-29T15:05:59.746Z,-74
2018-03-29T15:08:26.786Z,-74
2018-03-29T15:10:53.844Z,-73
2018-03-29T15:13:20.018Z,-73
2018-03-29T15:15:46.293Z,-73
2018-03-29T15:18:12.527Z,-73
2018-03-29T15:20:38.741Z,-72
2018-03-29T15:23:05.174Z,-75
2018-03-29T15:25:31.607Z,-73
2018-03-29T15:27:57.854Z,-73
2018-03-29T15:30:24.274Z,-71
2018-03-29T15:32:50.703Z,-73
2018-03-29T15:37:48.478Z,-74
2018-03-29T15:40:19.013Z,-71
2018-03-29T15:42:45.240Z,-71
2018-03-29T15:47:43.275Z,-69
2018-03-29T15:50:09.458Z,-71
2018-03-29T15:52:35.893Z,-72
2018-03-29T15:55:02.130Z,-71
2018-03-29T15:57:28.543Z,-72
2018-03-29T15:59:55.010Z,-71
2018-03-29T16:02:21.428Z,-71
2018-03-29T16:04:47.656Z,-70
2018-03-29T16:07:13.853Z,-70
2018-03-29T16:09:40.054Z,-71
2018-03-29T16:12:07.141Z,-71
2018-03-29T16:14:33.568Z,-71
2018-03-29T16:17:00.001Z,-71
2018-03-29T16:19:26.423Z,-71
2018-03-29T16:21:52.946Z,-72
2018-03-29T16:24:19.247Z,-69
2018-03-29T16:26:45.766Z,-70
2018-03-29T16:29:12.090Z,-71
2018-03-29T16:31:38.380Z,-71
2018-03-29T16:34:04.810Z,-71
2018-03-29T16:36:31.241Z,-71
2018-03-29T16:38:57.735Z,-71
2018-03-29T16:41:24.147Z,-71
2018-03-29T16:43:50.538Z,-70
2018-03-29T16:46:16.711Z,-71
2018-03-29T16:48:43.898Z,-71
2018-03-29T16:51:10.458Z,-71
2018-03-29T16:53:36.727Z,-71
2018-03-29T16:56:02.934Z,-71
2018-03-29T16:58:29.370Z,-71
2018-03-29T17:00:55.565Z,-71
2018-03-29T17:03:21.836Z,-71
2018-03-29T17:05:48.171Z,-71
2018-03-29T17:08:14.654Z,-71
2018-03-29T17:10:41.126Z,-71
2018-03-29T17:13:07.827Z,-71
2018-03-29T17:15:34.153Z,-71
2018-03-29T17:18:00.437Z,-71
2018-03-29T17:20:26.609Z,-71
2018-03-29T17:22:52.869Z,-72
2018-03-29T17:25:19.325Z,-71
2018-03-29T17:27:45.694Z,-71
2018-03-29T17:30:11.850Z,-71
2018-03-29T17:32:38.361Z,-71
2018-03-29T17:35:04.650Z,-70
2018-03-29T17:37:30.918Z,-71
2018-03-29T17:39:57.272Z,-71
2018-03-29T17:42:23.719Z,-71
2018-03-29T17:44:50.613Z,-69
2018-03-29T17:47:16.858Z,-69
2018-03-29T17:49:43.186Z,-71
2018-03-29T17:52:09.407Z,-71
2018-03-29T17:54:35.710Z,-70
2018-03-29T17:57:02.077Z,-69
2018-03-29T17:59:28.435Z,-72
2018-03-29T18:01:55.618Z,-72
2018-03-29T18:04:21.980Z,-71
2018-03-29T18:06:48.208Z,-71
2018-03-29T18:09:14.636Z,-71
2018-03-29T18:11:41.080Z,-71
2018-03-29T18:14:07.294Z,-70
2018-03-29T18:16:33.519Z,-70
2018-03-29T18:18:59.990Z,-70
2018-03-29T18:21:26.395Z,-71
2018-03-29T18:23:52.743Z,-72
2018-03-29T18:26:19.074Z,-71
2018-03-29T18:28:45.269Z,-70
2018-03-29T18:31:11.703Z,-71
2018-03-29T18:33:37.988Z,-72
2018-03-29T18:36:04.172Z,-70
2018-03-29T18:38:30.321Z,-71
2018-03-29T18:40:56.610Z,-70
2018-03-29T18:43:23.114Z,-70
2018-03-29T18:45:49.677Z,-68
2018-03-29T18:48:16.109Z,-72
2018-03-29T18:50:42.497Z,-71
2018-03-29T18:53:09.594Z,-72
2018-03-29T18:55:36.026Z,-71
2018-03-29T18:58:02.491Z,-71
2018-03-29T19:00:28.727Z,-71
2018-03-29T19:02:54.926Z,-71
2018-03-29T19:05:21.135Z,-71
2018-03-29T19:07:47.577Z,-70
2018-03-29T19:10:13.999Z,-71
2018-03-29T19:12:40.450Z,-71
2018-03-29T19:15:06.667Z,-72
2018-03-29T19:17:33.096Z,-71
2018-03-29T19:19:59.322Z,-70
2018-03-29T19:22:25.754Z,-71
2018-03-29T19:24:51.976Z,-70
2018-03-29T19:27:23.958Z,-71
2018-03-29T19:29:50.162Z,-70
2018-03-29T19:32:16.400Z,-70
2018-03-29T19:34:42.847Z,-71
2018-03-29T19:37:11.431Z,-71
2018-03-29T19:39:37.954Z,-71
2018-03-29T19:42:04.386Z,-71
2018-03-29T19:44:30.596Z,-70
2018-03-29T19:46:56.754Z,-71
2018-03-29T19:49:23.270Z,-70
2018-03-29T19:51:49.697Z,-71
2018-03-29T19:54:16.143Z,-71
2018-03-29T19:56:42.358Z,-71
2018-03-29T19:59:08.831Z,-69
2018-03-29T20:01:35.034Z,-71
2018-03-29T20:04:01.459Z,-71
2018-03-29T20:06:27.891Z,-71
2018-03-29T20:08:54.364Z,-71
2018-03-29T20:11:20.565Z,-71
2018-03-29T20:13:46.768Z,-71
2018-03-29T20:16:13.200Z,-71
2018-03-29T20:18:39.629Z,-71
2018-03-29T20:21:05.849Z,-71
2018-03-29T20:23:32.118Z,-70
2018-03-29T20:25:58.410Z,-70
2018-03-29T20:28:24.752Z,-70
2018-03-29T20:30:51.169Z,-71
2018-03-29T20:33:17.606Z,-71
2018-03-29T20:35:44.076Z,-71
2018-03-29T20:38:10.473Z,-71
2018-03-29T20:40:36.701Z,-71
2018-03-29T20:43:03.122Z,-72
2018-03-29T20:45:29.407Z,-71
2018-03-29T20:47:59.463Z,-71
2018-03-29T20:50:26.529Z,-70
2018-03-29T20:52:52.949Z,-71
2018-03-29T20:55:19.237Z,-71
2018-03-29T20:57:45.601Z,-71
2018-03-29T21:00:11.829Z,-70
2018-03-29T21:02:38.009Z,-69
2018-03-29T21:05:04.185Z,-70
2018-03-29T21:07:30.473Z,-70
2018-03-29T21:09:56.956Z,-71
2018-03-29T21:12:23.294Z,-71
2018-03-29T21:17:21.786Z,-71
2018-03-29T21:19:48.251Z,-70
2018-03-29T21:22:14.663Z,-69
2018-03-29T21:24:40.882Z,-71
2018-03-29T21:27:07.098Z,-70
2018-03-29T21:29:33.526Z,-71
2018-03-29T21:31:59.962Z,-70
2018-03-29T21:34:26.371Z,-71
2018-03-29T21:36:53.239Z,-70
2018-03-29T21:39:20.482Z,-71
2018-03-29T21:41:46.961Z,-71
2018-03-29T21:44:13.138Z,-71
2018-03-29T21:46:39.628Z,-71
2018-03-29T21:49:06.026Z,-70
2018-03-29T21:51:32.206Z,-71
2018-03-29T21:53:59.291Z,-71
2018-03-29T21:56:25.706Z,-70
2018-03-29T21:58:51.941Z,-70
2018-03-29T22:01:18.165Z,-71
2018-03-29T22:03:44.391Z,-70
2018-03-29T22:06:10.629Z,-70
2018-03-29T22:08:36.841Z,-70
2018-03-29T22:11:03.070Z,-71
2018-03-29T22:13:29.298Z,-71
2018-03-29T22:15:55.526Z,-71
2018-03-29T22:18:21.966Z,-71
2018-03-29T22:20:48.398Z,-71
2018-03-29T22:23:14.908Z,-71
2018-03-29T22:25:41.286Z,-71
2018-03-29T22:28:11.589Z,-71
2018-03-29T22:30:37.810Z,-73
2018-03-29T22:33:04.064Z,-71
2018-03-29T22:35:30.472Z,-71
2018-03-29T22:37:56.934Z,-71
2018-03-29T22:40:23.127Z,-71
2018-03-29T22:42:50.213Z,-71
2018-03-29T22:45:16.397Z,-71
2018-03-29T22:47:42.882Z,-70
2018-03-29T22:50:09.218Z,-70
2018-03-29T22:52:35.491Z,-70
2018-03-29T22:55:01.719Z,-70
2018-03-29T22:57:28.200Z,-71
2018-03-29T22:59:54.586Z,-72
2018-03-29T23:02:20.826Z,-70
2018-03-29T23:04:47.032Z,-71
2018-03-29T23:07:13.485Z,-70
2018-03-29T23:09:39.753Z,-70
2018-03-29T23:12:06.123Z,-72
2018-03-29T23:14:32.607Z,-71
2018-03-29T23:17:01.454Z,-71
2018-03-29T23:19:27.893Z,-72
2018-03-29T23:21:54.127Z,-69
2018-03-29T23:24:20.585Z,-72
2018-03-29T23:26:46.770Z,-71
2018-03-29T23:29:13.210Z,-71
2018-03-29T23:31:39.425Z,-71
2018-03-29T23:34:05.893Z,-73
2018-03-29T23:36:32.502Z,-71
2018-03-29T23:38:58.974Z,-72
2018-03-29T23:41:25.126Z,-72
2018-03-29T23:43:52.412Z,-72
2018-03-29T23:46:18.893Z,-71
2018-03-29T23:48:45.269Z,-71
2018-03-29T23:51:11.702Z,-71
2018-03-29T23:53:38.193Z,-71
2018-03-29T23:56:04.758Z,-71
2018-03-29T23:58:31.775Z,-71
